createdAt,value
2017-11-14T00:02:25.822Z,42.00
2017-11-14T00:04:54.172Z,34.97
2017-11-14T00:07:22.567Z,39.53
2017-11-14T00:09:50.935Z,38.23
2017-11-14T00:12:19.284Z,31.63
2017-11-14T00:14:47.672Z,31.70
2017-11-14T00:17:16.046Z,38.40
2017-11-14T00:19:44.438Z,33.97
2017-11-14T00:22:12.786Z,27.90
2017-11-14T00:24:41.161Z,28.53
2017-11-14T00:27:09.560Z,38.30
2017-11-14T00:29:37.900Z,26.90
2017-11-14T00:32:06.262Z,25.87
2017-11-14T00:34:34.625Z,26.50
2017-11-14T00:37:02.976Z,30.40
2017-11-14T00:39:31.335Z,32.43
2017-11-14T00:41:59.679Z,37.97
2017-11-14T00:44:28.045Z,33.77
2017-11-14T00:46:56.393Z,42.07
2017-11-14T00:49:24.743Z,35.63
2017-11-14T00:51:53.100Z,33.53
2017-11-14T00:54:21.449Z,36.90
2017-11-14T00:56:49.810Z,32.77
2017-11-14T00:59:18.187Z,39.00
2017-11-14T01:01:46.541Z,35.57
2017-11-14T01:04:14.894Z,40.90
2017-11-14T01:06:43.231Z,30.67
2017-11-14T01:09:11.592Z,30.47
2017-11-14T01:11:39.948Z,33.87
2017-11-14T01:14:08.305Z,30.40
2017-11-14T01:16:36.647Z,30.83
2017-11-14T01:19:04.996Z,30.00
2017-11-14T01:21:33.346Z,27.20
2017-11-14T01:24:01.725Z,28.13
2017-11-14T01:26:30.065Z,28.00
2017-11-14T01:28:58.441Z,35.90
2017-11-14T01:31:26.811Z,26.80
2017-11-14T01:33:55.163Z,31.57
2017-11-14T01:36:23.527Z,40.22
2017-11-14T01:38:51.898Z,30.90
2017-11-14T01:41:20.256Z,36.13
2017-11-14T01:43:48.623Z,33.70
2017-11-14T01:46:16.969Z,36.13
2017-11-14T01:48:45.348Z,39.60
2017-11-14T01:51:13.695Z,33.07
2017-11-14T01:53:42.040Z,30.00
2017-11-14T01:56:10.389Z,30.27
2017-11-14T01:58:38.759Z,29.93
2017-11-14T02:01:23.400Z,33.40
2017-11-14T02:03:52.025Z,34.97
2017-11-14T02:06:21.243Z,29.93
2017-11-14T02:08:50.207Z,26.07
2017-11-14T02:11:19.178Z,29.03
2017-11-14T02:13:47.846Z,28.73
2017-11-14T02:16:16.223Z,25.00
2017-11-14T02:18:44.795Z,36.07
2017-11-14T02:21:15.863Z,22.63
2017-11-14T02:23:45.092Z,31.20
2017-11-14T02:26:13.948Z,23.17
2017-11-14T02:28:42.305Z,30.70
2017-11-14T02:31:10.659Z,34.55
2017-11-14T02:33:39.023Z,38.07
2017-11-14T02:36:07.373Z,33.00
2017-11-14T02:38:35.747Z,26.97
2017-11-14T02:41:04.139Z,41.47
2017-11-14T02:43:32.795Z,37.53
2017-11-14T02:46:01.174Z,46.53
2017-11-14T02:48:29.524Z,48.10
2017-11-14T02:50:58.105Z,37.35
2017-11-14T02:53:27.323Z,32.93
2017-11-14T02:55:55.686Z,35.15
2017-11-14T02:58:24.851Z,37.83
2017-11-14T03:00:53.238Z,25.98
2017-11-14T03:03:21.604Z,41.67
2017-11-14T03:05:49.984Z,44.60
2017-11-14T03:08:18.388Z,32.23
2017-11-14T03:10:46.753Z,33.58
2017-11-14T03:13:15.983Z,38.30
2017-11-14T03:15:44.366Z,27.77
2017-11-14T03:18:13.433Z,34.30
2017-11-14T03:20:41.837Z,26.10
2017-11-14T03:23:10.202Z,29.58
2017-11-14T03:25:38.584Z,40.40
2017-11-14T03:28:06.930Z,33.17
2017-11-14T03:30:35.309Z,33.25
2017-11-14T03:33:03.681Z,26.77
2017-11-14T03:35:32.032Z,27.17
2017-11-14T03:38:00.417Z,28.73
2017-11-14T03:40:28.776Z,40.35
2017-11-14T03:42:57.136Z,33.40
2017-11-14T03:45:26.234Z,29.85
2017-11-14T03:47:54.584Z,26.40
2017-11-14T03:50:24.179Z,39.43
2017-11-14T03:52:52.527Z,29.53
2017-11-14T03:55:21.167Z,28.97
2017-11-14T03:57:49.552Z,25.50
2017-11-14T04:00:28.277Z,27.80
2017-11-14T04:02:56.624Z,25.40
2017-11-14T04:05:24.982Z,29.80
2017-11-14T04:07:53.325Z,18.67
2017-11-14T04:10:21.684Z,29.00
2017-11-14T04:12:50.677Z,35.60
2017-11-14T04:15:19.624Z,24.57
2017-11-14T04:17:48.973Z,25.63
2017-11-14T04:20:17.359Z,27.73
2017-11-14T04:22:45.741Z,26.63
2017-11-14T04:25:15.433Z,26.80
2017-11-14T04:27:47.945Z,37.07
2017-11-14T04:30:21.517Z,38.77
2017-11-14T04:32:51.720Z,30.33
2017-11-14T04:35:20.867Z,31.63
2017-11-14T04:37:49.271Z,35.45
2017-11-14T04:40:18.279Z,24.23
2017-11-14T04:42:46.628Z,25.43
2017-11-14T04:45:15.010Z,25.03
2017-11-14T04:47:44.076Z,17.43
2017-11-14T04:50:12.448Z,17.57
2017-11-14T04:52:40.824Z,23.40
2017-11-14T04:55:10.092Z,23.33
2017-11-14T04:57:38.436Z,23.13
2017-11-14T05:00:08.407Z,24.53
2017-11-14T05:02:54.424Z,18.10
2017-11-14T05:05:51.111Z,21.13
2017-11-14T05:08:19.494Z,20.43
2017-11-14T05:10:48.114Z,26.93
2017-11-14T05:13:16.457Z,18.50
2017-11-14T05:15:44.800Z,19.67
2017-11-14T05:18:13.177Z,20.93
2017-11-14T05:20:41.559Z,27.33
2017-11-14T05:23:10.278Z,17.10
2017-11-14T05:28:14.197Z,27.00
2017-11-14T05:30:42.535Z,20.77
2017-11-14T05:33:10.921Z,16.25
2017-11-14T05:35:39.343Z,32.38
2017-11-14T05:38:07.712Z,27.50
2017-11-14T05:40:37.079Z,21.67
2017-11-14T05:43:07.731Z,25.23
2017-11-14T05:45:38.920Z,23.95
2017-11-14T05:48:07.288Z,40.65
2017-11-14T05:50:35.684Z,35.90
2017-11-14T05:53:04.067Z,34.13
2017-11-14T05:55:32.432Z,43.47
2017-11-14T05:58:00.829Z,25.05
2017-11-14T06:00:29.225Z,30.73
2017-11-14T06:02:57.818Z,15.68
2017-11-14T06:05:26.409Z,26.20
2017-11-14T06:07:54.808Z,30.67
2017-11-14T06:10:23.163Z,21.12
2017-11-14T06:12:51.527Z,23.30
2017-11-14T06:15:19.899Z,23.00
2017-11-14T06:17:48.277Z,16.23
2017-11-14T06:20:16.619Z,23.70
2017-11-14T06:22:45.021Z,27.50
2017-11-14T06:25:13.383Z,19.55
2017-11-14T06:27:42.423Z,21.40
2017-11-14T06:30:11.739Z,25.00
2017-11-14T06:32:40.949Z,22.95
2017-11-14T06:35:09.724Z,13.38
2017-11-14T06:37:38.492Z,23.50
2017-11-14T06:40:06.851Z,14.10
2017-11-14T06:42:35.213Z,16.08
2017-11-14T06:45:04.509Z,22.83
2017-11-14T06:47:32.897Z,25.08
2017-11-14T06:50:01.957Z,28.08
2017-11-14T06:52:30.892Z,38.55
2017-11-14T06:54:59.287Z,48.78
2017-11-14T06:57:27.648Z,24.83
2017-11-14T06:59:55.992Z,22.10
2017-11-14T07:02:25.245Z,34.53
2017-11-14T07:04:54.337Z,18.15
2017-11-14T07:07:22.685Z,38.40
2017-11-14T07:09:51.046Z,19.65
2017-11-14T07:12:19.432Z,21.70
2017-11-14T07:14:49.268Z,21.80
2017-11-14T07:17:18.653Z,24.10
2017-11-14T07:19:47.474Z,19.52
2017-11-14T07:22:16.442Z,18.15
2017-11-14T07:24:45.422Z,19.73
2017-11-14T07:27:13.838Z,21.17
2017-11-14T07:29:42.361Z,19.70
2017-11-14T07:32:11.552Z,12.73
2017-11-14T07:34:39.915Z,16.48
2017-11-14T07:37:09.117Z,24.02
2017-11-14T07:39:37.488Z,18.35
2017-11-14T07:42:05.869Z,31.00
2017-11-14T07:44:35.129Z,15.23
2017-11-14T07:47:03.524Z,16.55
2017-11-14T07:49:31.879Z,13.55
2017-11-14T07:52:00.316Z,13.40
2017-11-14T07:54:28.673Z,23.53
2017-11-14T07:56:59.147Z,12.25
2017-11-14T07:59:27.511Z,15.30
2017-11-14T08:01:55.897Z,15.47
2017-11-14T08:04:24.284Z,16.10
2017-11-14T08:06:52.680Z,18.10
2017-11-14T08:09:21.040Z,14.30
2017-11-14T08:11:49.461Z,14.73
2017-11-14T08:14:17.839Z,8.07
2017-11-14T08:16:46.242Z,21.67
2017-11-14T08:19:14.638Z,15.27
2017-11-14T08:21:43.872Z,9.73
2017-11-14T08:24:12.218Z,11.53
2017-11-14T08:26:40.592Z,8.57
2017-11-14T08:29:09.780Z,12.93
2017-11-14T08:31:38.170Z,20.83
2017-11-14T08:34:08.225Z,11.13
2017-11-14T08:36:36.571Z,16.13
2017-11-14T08:39:04.945Z,17.93
2017-11-14T08:41:33.343Z,13.03
2017-11-14T08:44:01.732Z,10.53
2017-11-14T08:46:30.073Z,13.70
2017-11-14T08:48:58.969Z,8.77
2017-11-14T08:51:27.500Z,11.63
2017-11-14T08:53:55.924Z,7.63
2017-11-14T08:56:24.273Z,20.20
2017-11-14T08:58:52.641Z,14.70
2017-11-14T09:01:20.996Z,14.03
2017-11-14T09:03:50.196Z,6.87
2017-11-14T09:06:18.524Z,4.50
2017-11-14T09:08:48.054Z,8.50
2017-11-14T09:11:17.638Z,6.33
2017-11-14T09:13:46.464Z,8.90
2017-11-14T09:16:15.827Z,3.43
2017-11-14T09:18:44.151Z,8.90
2017-11-14T09:21:12.821Z,14.43
2017-11-14T09:23:41.454Z,27.20
2017-11-14T09:26:09.789Z,7.73
2017-11-14T09:28:38.176Z,11.70
2017-11-14T09:31:06.523Z,10.83
2017-11-14T09:33:34.898Z,16.37
2017-11-14T09:36:03.293Z,16.23
2017-11-14T09:38:32.531Z,10.50
2017-11-14T09:41:02.794Z,12.20
2017-11-14T09:43:31.168Z,20.70
2017-11-14T09:45:59.650Z,12.10
2017-11-14T09:48:27.997Z,7.80
2017-11-14T09:50:56.337Z,7.67
2017-11-14T09:53:24.695Z,10.23
2017-11-14T09:55:53.263Z,10.57
2017-11-14T09:58:21.661Z,12.27
2017-11-14T10:00:50.007Z,11.43
2017-11-14T10:03:19.140Z,10.57
2017-11-14T10:05:47.526Z,12.07
2017-11-14T10:08:16.660Z,11.10
2017-11-14T10:10:45.037Z,19.97
2017-11-14T10:13:14.100Z,23.10
2017-11-14T10:15:42.427Z,15.90
2017-11-14T10:18:11.443Z,10.93
2017-11-14T10:20:39.831Z,14.33
2017-11-14T10:23:09.076Z,12.47
2017-11-14T10:25:38.426Z,12.30
2017-11-14T10:28:06.752Z,14.47
2017-11-14T10:30:35.114Z,14.57
2017-11-14T10:33:03.467Z,21.70
2017-11-14T10:35:31.917Z,12.53
2017-11-14T10:38:00.265Z,11.87
2017-11-14T10:40:28.613Z,12.77
2017-11-14T10:42:56.957Z,14.93
2017-11-14T10:45:27.011Z,11.87
2017-11-14T10:47:55.573Z,10.90
2017-11-14T10:50:23.904Z,8.47
2017-11-14T10:52:52.253Z,18.87
2017-11-14T10:55:22.215Z,13.23
2017-11-14T10:57:52.076Z,28.50
2017-11-14T11:00:26.506Z,16.27
2017-11-14T11:02:54.859Z,13.27
2017-11-14T11:05:23.328Z,25.17
2017-11-14T11:07:51.672Z,24.13
2017-11-14T11:10:20.008Z,14.03
2017-11-14T11:12:48.344Z,15.70
2017-11-14T11:15:16.690Z,24.17
2017-11-14T11:17:45.028Z,18.80
2017-11-14T11:20:14.276Z,15.37
2017-11-14T11:22:42.951Z,21.10
2017-11-14T11:25:11.308Z,16.53
2017-11-14T11:27:40.137Z,14.40
2017-11-14T11:30:08.542Z,23.20
2017-11-14T11:32:37.734Z,21.50
2017-11-14T11:35:07.895Z,16.50
2017-11-14T11:37:36.258Z,22.37
2017-11-14T11:40:05.055Z,17.53
2017-11-14T11:42:34.258Z,18.70
2017-11-14T11:45:12.560Z,16.83
2017-11-14T11:47:40.974Z,14.43
2017-11-14T11:50:09.325Z,23.00
2017-11-14T11:52:38.166Z,23.23
2017-11-14T11:55:06.516Z,19.33
2017-11-14T11:57:34.859Z,26.93
2017-11-14T12:00:03.195Z,23.10
2017-11-14T12:02:31.536Z,16.70
2017-11-14T12:04:59.916Z,24.50
2017-11-14T12:07:28.265Z,21.27
2017-11-14T12:09:56.603Z,18.70
2017-11-14T12:12:26.489Z,18.87
2017-11-14T12:14:54.836Z,21.77
2017-11-14T12:17:24.254Z,21.93
2017-11-14T12:19:53.260Z,22.40
2017-11-14T12:22:21.627Z,15.83
2017-11-14T12:24:49.981Z,20.93
2017-11-14T12:27:18.336Z,18.13
2017-11-14T12:29:46.676Z,15.40
2017-11-14T12:32:15.124Z,16.27
2017-11-14T12:34:44.268Z,12.47
2017-11-14T12:37:13.408Z,16.17
2017-11-14T12:39:41.782Z,12.47
2017-11-14T12:42:10.150Z,15.13
2017-11-14T12:44:39.396Z,12.17
2017-11-14T12:50:02.801Z,15.03
2017-11-14T12:52:32.080Z,20.43
2017-11-14T12:55:00.417Z,9.13
2017-11-14T12:57:28.787Z,11.20
2017-11-14T12:59:57.129Z,13.10
2017-11-14T13:02:25.495Z,8.93
2017-11-14T13:04:53.832Z,12.87
2017-11-14T13:07:22.207Z,13.87
2017-11-14T13:09:50.552Z,8.93
2017-11-14T13:12:18.894Z,9.97
2017-11-14T13:14:47.227Z,7.87
2017-11-14T13:17:15.583Z,13.67
2017-11-14T13:19:43.941Z,8.47
2017-11-14T13:22:12.298Z,10.17
2017-11-14T13:24:41.103Z,10.90
2017-11-14T13:27:09.436Z,6.33
2017-11-14T13:29:37.769Z,6.20
2017-11-14T13:32:06.139Z,7.93
2017-11-14T13:34:34.504Z,6.30
2017-11-14T13:37:03.097Z,9.40
2017-11-14T13:39:31.440Z,11.53
2017-11-14T13:41:59.778Z,5.70
2017-11-14T13:44:28.145Z,6.23
2017-11-14T13:46:56.498Z,8.90
2017-11-14T13:49:24.834Z,10.20
2017-11-14T13:51:53.876Z,4.00
2017-11-14T13:54:22.209Z,7.77
2017-11-14T13:56:50.571Z,6.20
2017-11-14T13:59:18.920Z,5.13
2017-11-14T14:01:47.242Z,5.70
2017-11-14T14:04:15.708Z,2.53
2017-11-14T14:06:44.070Z,5.77
2017-11-14T14:09:12.441Z,5.63
2017-11-14T14:11:40.909Z,6.20
2017-11-14T14:14:09.241Z,5.63
2017-11-14T14:16:39.391Z,4.53
2017-11-14T14:19:07.820Z,16.30
2017-11-14T14:21:36.195Z,4.23
2017-11-14T14:24:04.533Z,6.30
2017-11-14T14:26:32.860Z,4.33
2017-11-14T14:29:01.213Z,6.73
2017-11-14T14:31:29.591Z,7.70
2017-11-14T14:33:57.939Z,4.60
2017-11-14T14:36:26.985Z,3.40
2017-11-14T14:38:55.344Z,7.07
2017-11-14T14:41:24.010Z,4.30
2017-11-14T14:43:52.672Z,6.07
2017-11-14T14:46:21.124Z,14.13
2017-11-14T14:48:49.473Z,9.73
2017-11-14T14:51:17.818Z,6.07
2017-11-14T14:53:46.194Z,7.30
2017-11-14T14:56:14.540Z,10.13
2017-11-14T14:58:43.846Z,6.57
2017-11-14T15:01:13.086Z,9.20
2017-11-14T15:03:41.458Z,11.10
2017-11-14T15:06:09.820Z,8.97
2017-11-14T15:08:39.207Z,8.73
2017-11-14T15:11:07.532Z,6.47
2017-11-14T15:13:35.916Z,12.17
2017-11-14T15:16:04.980Z,12.30
2017-11-14T15:18:34.444Z,9.47
2017-11-14T15:21:02.791Z,13.70
2017-11-14T15:23:31.130Z,8.10
2017-11-14T15:25:59.516Z,8.87
2017-11-14T15:28:28.284Z,14.53
2017-11-14T15:30:56.638Z,12.03
2017-11-14T15:33:25.707Z,14.60
2017-11-14T15:35:54.057Z,10.90
2017-11-14T15:38:24.704Z,8.50
2017-11-14T15:40:53.086Z,11.10
2017-11-14T15:43:21.429Z,9.30
2017-11-14T15:45:49.769Z,9.27
2017-11-14T15:48:18.123Z,9.27
2017-11-14T15:50:46.501Z,6.90
2017-11-14T15:53:15.336Z,14.90
2017-11-14T15:55:51.244Z,10.10
2017-11-14T15:58:23.004Z,13.30
2017-11-14T16:00:51.613Z,10.30
2017-11-14T16:03:19.948Z,20.83
2017-11-14T16:05:48.345Z,17.10
2017-11-14T16:08:17.040Z,19.13
2017-11-14T16:10:45.429Z,14.77
2017-11-14T16:13:13.779Z,7.87
2017-11-14T16:15:42.153Z,15.63
2017-11-14T16:18:10.505Z,11.33
2017-11-14T16:20:39.265Z,19.27
2017-11-14T16:23:08.585Z,11.40
2017-11-14T16:25:36.926Z,8.93
2017-11-14T16:28:05.268Z,9.87
2017-11-14T16:30:34.213Z,14.47
2017-11-14T16:33:02.650Z,11.50
2017-11-14T16:35:31.331Z,15.70
2017-11-14T16:37:59.685Z,12.17
2017-11-14T16:40:28.153Z,22.30
2017-11-14T16:42:56.551Z,11.90
2017-11-14T16:45:25.849Z,27.90
2017-11-14T16:47:54.904Z,13.87
2017-11-14T16:50:23.911Z,14.50
2017-11-14T16:52:52.278Z,17.37
2017-11-14T16:55:20.617Z,13.63
2017-11-14T16:57:49.003Z,14.83
2017-11-14T17:00:17.357Z,13.17
2017-11-14T17:02:46.622Z,14.83
2017-11-14T17:05:14.987Z,11.03
2017-11-14T17:07:44.163Z,16.40
2017-11-14T17:10:13.483Z,10.80
2017-11-14T17:12:42.735Z,14.70
2017-11-14T17:15:11.107Z,14.33
2017-11-14T17:17:39.488Z,22.30
2017-11-14T17:20:08.109Z,16.00
2017-11-14T17:22:36.475Z,21.03
2017-11-14T17:25:04.888Z,16.87
2017-11-14T17:27:33.960Z,15.20
2017-11-14T17:30:02.313Z,27.37
2017-11-14T17:32:30.692Z,18.60
2017-11-14T17:34:59.096Z,19.77
2017-11-14T17:37:28.454Z,19.10
2017-11-14T17:39:57.693Z,19.73
2017-11-14T17:42:26.088Z,19.97
2017-11-14T17:44:54.556Z,29.87
2017-11-14T17:47:22.927Z,15.80
2017-11-14T17:49:52.242Z,35.20
2017-11-14T17:52:20.603Z,18.07
2017-11-14T17:54:48.979Z,13.43
2017-11-14T17:57:17.356Z,32.03
2017-11-14T17:59:45.886Z,25.53
2017-11-14T18:02:14.403Z,27.30
2017-11-14T18:04:43.042Z,23.53
2017-11-14T18:07:11.646Z,20.80
2017-11-14T18:09:40.674Z,32.90
2017-11-14T18:12:09.266Z,21.77
2017-11-14T18:14:38.566Z,26.67
2017-11-14T18:17:07.106Z,24.87
2017-11-14T18:19:36.075Z,15.20
2017-11-14T18:22:04.435Z,17.13
2017-11-14T18:24:33.735Z,22.30
2017-11-14T18:27:02.099Z,22.40
2017-11-14T18:29:30.451Z,22.97
2017-11-14T18:31:58.812Z,21.33
2017-11-14T18:34:27.667Z,19.83
2017-11-14T18:36:56.053Z,23.90
2017-11-14T18:39:24.432Z,21.93
2017-11-14T18:41:52.846Z,23.00
2017-11-14T18:44:21.205Z,19.00
2017-11-14T18:46:49.573Z,26.43
2017-11-14T18:49:17.919Z,19.87
2017-11-14T18:51:46.312Z,19.97
2017-11-14T18:54:15.159Z,17.27
2017-11-14T18:56:44.305Z,14.43
2017-11-14T18:59:12.661Z,18.17
2017-11-14T19:01:41.006Z,17.60
2017-11-14T19:04:10.185Z,9.47
2017-11-14T19:06:38.544Z,19.10
2017-11-14T19:09:06.912Z,20.70
2017-11-14T19:11:35.275Z,25.03
2017-11-14T19:14:03.655Z,20.27
2017-11-14T19:16:32.001Z,20.30
2017-11-14T19:19:00.368Z,24.73
2017-11-14T19:21:30.056Z,22.53
2017-11-14T19:23:58.401Z,26.37
2017-11-14T19:26:27.025Z,25.97
2017-11-14T19:28:55.373Z,12.60
2017-11-14T19:31:23.759Z,14.73
2017-11-14T19:33:52.110Z,10.47
2017-11-14T19:36:20.468Z,13.40
2017-11-14T19:38:51.735Z,12.30
2017-11-14T19:41:20.080Z,18.87
2017-11-14T19:43:48.460Z,22.43
2017-11-14T19:46:16.840Z,18.93
2017-11-14T19:48:45.202Z,17.97
2017-11-14T19:51:13.603Z,19.43
2017-11-14T19:53:42.156Z,24.60
2017-11-14T19:56:11.285Z,18.57
2017-11-14T19:58:40.360Z,24.57
2017-11-14T20:01:09.704Z,19.93
2017-11-14T20:03:38.096Z,13.60
2017-11-14T20:06:06.452Z,16.00
2017-11-14T20:08:35.552Z,15.53
2017-11-14T20:11:03.888Z,13.40
2017-11-14T20:13:32.222Z,7.43
2017-11-14T20:16:02.362Z,11.27
2017-11-14T20:18:30.706Z,12.70
2017-11-14T20:20:59.057Z,11.90
2017-11-14T20:23:27.415Z,13.83
2017-11-14T20:25:55.793Z,18.53
2017-11-14T20:28:24.150Z,12.20
2017-11-14T20:30:52.508Z,9.17
2017-11-14T20:33:22.700Z,12.10
2017-11-14T20:35:51.193Z,11.77
2017-11-14T20:38:19.585Z,13.00
2017-11-14T20:40:47.932Z,12.13
2017-11-14T20:43:16.325Z,7.60
2017-11-14T20:45:44.675Z,7.73
2017-11-14T20:48:13.031Z,7.50
2017-11-14T20:50:41.406Z,7.23
2017-11-14T20:53:09.750Z,13.27
2017-11-14T20:55:38.128Z,15.90
2017-11-14T20:58:06.488Z,16.50
2017-11-14T21:00:34.869Z,16.83
2017-11-14T21:03:03.248Z,17.90
2017-11-14T21:05:34.648Z,12.87
2017-11-14T21:08:04.140Z,21.70
2017-11-14T21:10:34.066Z,18.03
2017-11-14T21:13:02.436Z,12.40
2017-11-14T21:15:31.592Z,10.33
2017-11-14T21:17:59.932Z,6.40
2017-11-14T21:20:28.318Z,5.20
2017-11-14T21:22:56.665Z,3.90
2017-11-14T21:25:25.728Z,5.10
2017-11-14T21:27:54.108Z,4.33
2017-11-14T21:30:22.661Z,7.47
2017-11-14T21:32:51.033Z,8.23
2017-11-14T21:35:23.312Z,10.43
2017-11-14T21:37:51.666Z,9.77
2017-11-14T21:40:20.032Z,14.07
2017-11-14T21:42:48.525Z,10.20
2017-11-14T21:45:16.874Z,15.40
2017-11-14T21:47:45.241Z,12.30
2017-11-14T21:50:13.615Z,12.63
2017-11-14T21:52:41.968Z,7.07
2017-11-14T21:55:10.319Z,6.27
2017-11-14T21:57:39.036Z,5.43
2017-11-14T22:00:07.416Z,6.57
2017-11-14T22:02:35.773Z,5.93
2017-11-14T22:05:04.127Z,5.93
2017-11-14T22:07:32.505Z,8.10
2017-11-14T22:10:05.942Z,6.97
2017-11-14T22:12:34.307Z,10.67
2017-11-14T22:15:02.917Z,10.47
2017-11-14T22:17:31.267Z,8.10
2017-11-14T22:19:59.619Z,9.07
2017-11-14T22:22:28.697Z,16.43
2017-11-14T22:24:57.076Z,10.17
2017-11-14T22:27:26.584Z,9.97
2017-11-14T22:29:55.745Z,8.00
2017-11-14T22:32:24.100Z,8.40
2017-11-14T22:34:53.238Z,5.90
2017-11-14T22:37:21.786Z,6.53
2017-11-14T22:39:50.145Z,6.83
2017-11-14T22:42:18.955Z,6.50
2017-11-14T22:44:47.314Z,7.00
2017-11-14T22:47:15.669Z,8.90
2017-11-14T22:49:44.054Z,8.60
2017-11-14T22:52:12.478Z,7.30
2017-11-14T22:54:40.842Z,7.00
2017-11-14T22:57:09.206Z,10.13
2017-11-14T22:59:37.557Z,7.80
2017-11-14T23:02:05.945Z,16.30
2017-11-14T23:04:34.305Z,12.93
2017-11-14T23:07:02.659Z,9.30
2017-11-14T23:09:31.009Z,9.40
2017-11-14T23:11:59.378Z,6.80
2017-11-14T23:14:27.744Z,4.83
2017-11-14T23:16:56.894Z,8.43
2017-11-14T23:19:25.241Z,9.63
2017-11-14T23:21:53.601Z,7.67
2017-11-14T23:24:22.996Z,7.83
2017-11-14T23:26:51.362Z,11.20
2017-11-14T23:29:20.641Z,11.43
2017-11-14T23:31:50.129Z,13.07
2017-11-14T23:34:18.485Z,11.17
2017-11-14T23:36:46.847Z,11.80
2017-11-14T23:39:15.220Z,10.67
2017-11-14T23:41:43.593Z,11.93
2017-11-14T23:44:11.952Z,12.43
2017-11-14T23:46:40.301Z,8.53
2017-11-14T23:49:08.653Z,11.83
2017-11-14T23:51:37.002Z,10.80
2017-11-14T23:54:05.365Z,11.30
2017-11-14T23:56:33.720Z,10.33
2017-11-14T23:59:02.089Z,9.43
